Time;durP1;ratioP1;P1;durP2;ratioP2;P2;SDS_P1;SDS_P2;PMS_P1;PMS_P2;Temp;Humidity;BMP_temperature;BMP_pressure;BME280_temperature;BME280_humidity;BME280_pressure;Samples;Min_cycle;Max_cycle;Signal;HPM_P1;HPM_P2
2022/11/21 00:00:52;;;;;;;7.90;6.20;;;1.90;99.90;;;;;;5091820;28;20033;-51
2022/11/21 00:03:17;;;;;;;8.70;6.20;;;2.00;99.90;;;;;;5091598;28;20020;-52
2022/11/21 00:05:52;;;;;;;11.13;5.88;;;2.00;99.90;;;;;;5091635;28;20428;-52
2022/11/21 00:08:20;;;;;;;30.58;13.52;;;2.10;99.90;;;;;;5090377;28;20490;-52
2022/11/21 00:10:47;;;;;;;8.65;6.38;;;2.20;99.90;;;;;;5090203;28;20031;-51
2022/11/21 00:13:19;;;;;;;7.45;5.28;;;2.30;99.90;;;;;;5090340;28;20035;-55
2022/11/21 00:16:05;;;;;;;10.38;7.03;;;2.40;99.90;;;;;;5091545;28;20024;-54
2022/11/21 00:18:33;;;;;;;8.80;6.13;;;2.30;99.90;;;;;;5091466;28;20050;-54
2022/11/21 00:21:07;;;;;;;7.57;6.13;;;2.40;99.90;;;;;;5077681;28;20071;-53
2022/11/21 00:23:34;;;;;;;4.68;4.28;;;2.40;99.90;;;;;;5071347;28;20071;-53
2022/11/21 00:26:04;;;;;;;5.53;4.90;;;2.60;99.90;;;;;;5071243;28;20032;-50
2022/11/21 00:28:29;;;;;;;4.68;4.28;;;2.80;99.90;;;;;;5071402;28;20055;-53
2022/11/21 00:30:55;;;;;;;5.32;4.88;;;2.90;99.90;;;;;;5071346;28;20060;-52
2022/11/21 00:33:20;;;;;;;7.53;6.40;;;2.90;99.90;;;;;;5071414;28;20104;-51
2022/11/21 00:35:46;;;;;;;6.30;5.32;;;2.90;99.90;;;;;;5071146;28;20021;-51
2022/11/21 00:38:12;;;;;;;6.03;4.65;;;3.00;99.90;;;;;;5071371;28;20029;-52
2022/11/21 00:40:37;;;;;;;5.80;5.05;;;3.00;99.90;;;;;;5071019;28;20127;-51
2022/11/21 00:43:03;;;;;;;6.05;4.35;;;3.00;99.90;;;;;;5071196;28;20112;-53
2022/11/21 00:45:28;;;;;;;4.78;4.22;;;3.10;99.90;;;;;;5071217;28;20028;-53
2022/11/21 00:47:54;;;;;;;4.40;3.95;;;3.10;99.90;;;;;;5071063;28;20119;-55
2022/11/21 00:50:20;;;;;;;4.10;3.70;;;3.20;99.90;;;;;;5071039;28;20100;-55
2022/11/21 00:52:45;;;;;;;4.40;4.00;;;3.30;99.90;;;;;;5070984;28;20032;-55
2022/11/21 00:55:11;;;;;;;4.35;3.30;;;3.50;99.90;;;;;;5074788;28;20051;-53
2022/11/21 00:57:36;;;;;;;4.28;3.58;;;3.60;99.90;;;;;;5074800;28;20460;-51
2022/11/21 01:00:03;;;;;;;6.65;3.53;;;3.80;99.90;;;;;;5074848;28;20028;-53
2022/11/21 01:02:31;;;;;;;4.57;4.03;;;3.90;99.90;;;;;;5074862;28;20036;-55
2022/11/21 01:04:56;;;;;;;4.45;4.05;;;4.00;99.90;;;;;;5074625;28;20099;-52
2022/11/21 01:07:22;;;;;;;4.60;3.65;;;4.00;99.90;;;;;;5074819;28;20095;-52
2022/11/21 01:09:48;;;;;;;4.53;4.13;;;4.10;99.90;;;;;;5074321;28;20119;-53
2022/11/21 01:12:13;;;;;;;4.38;3.72;;;4.10;99.90;;;;;;5074578;28;20028;-56
2022/11/21 01:14:39;;;;;;;4.35;3.95;;;4.20;99.90;;;;;;5074503;28;20035;-52
2022/11/21 01:17:05;;;;;;;4.47;4.07;;;4.20;99.90;;;;;;5074586;28;20036;-53
2022/11/21 01:19:30;;;;;;;7.80;4.30;;;4.10;99.90;;;;;;5074408;28;20044;-52
2022/11/21 01:21:56;;;;;;;4.50;4.03;;;4.10;99.90;;;;;;5074355;28;20021;-51
2022/11/21 01:24:21;;;;;;;5.47;3.67;;;4.00;99.90;;;;;;5074169;28;20040;-54
2022/11/21 01:26:49;;;;;;;4.22;3.88;;;4.10;99.90;;;;;;5074324;28;20043;-53
2022/11/21 01:29:15;;;;;;;4.07;3.75;;;4.00;99.90;;;;;;5074260;28;20059;-53
2022/11/21 01:31:47;;;;;;;4.40;4.10;;;4.10;99.90;;;;;;5074198;28;20033;-54
2022/11/21 01:34:13;;;;;;;4.53;4.05;;;4.10;99.90;;;;;;5073035;28;20459;-54
2022/11/21 01:36:51;;;;;;;4.53;4.13;;;4.00;99.90;;;;;;5074123;28;20517;-53
2022/11/21 01:39:17;;;;;;;3.72;3.40;;;3.90;99.90;;;;;;5073953;28;20036;-55
2022/11/21 01:41:44;;;;;;;4.78;3.83;;;4.00;99.90;;;;;;5074022;28;20031;-50
2022/11/21 01:44:12;;;;;;;5.03;4.15;;;3.90;99.90;;;;;;5074143;28;20028;-55
2022/11/21 01:46:38;;;;;;;6.13;4.45;;;3.80;99.90;;;;;;5073980;28;20037;-53
2022/11/21 01:49:08;;;;;;;5.55;5.03;;;3.80;99.90;;;;;;5072698;28;20028;-56
2022/11/21 01:51:47;;;;;;;4.55;4.25;;;3.80;99.90;;;;;;5073933;28;20419;-55
2022/11/21 01:54:13;;;;;;;5.68;4.43;;;3.70;99.90;;;;;;5073794;28;20078;-52
2022/11/21 01:56:47;;;;;;;5.10;4.70;;;3.70;99.90;;;;;;5073740;28;20024;-53
2022/11/21 01:59:26;;;;;;;4.75;4.22;;;3.70;99.90;;;;;;5073746;28;20539;-53
2022/11/21 02:01:53;;;;;;;5.20;4.70;;;3.60;99.90;;;;;;5073554;28;20111;-53
2022/11/21 02:04:22;;;;;;;4.22;3.92;;;3.70;99.90;;;;;;5073452;28;20032;-52
2022/11/21 02:06:48;;;;;;;5.25;4.15;;;3.70;99.90;;;;;;5073505;28;20028;-51
2022/11/21 02:09:13;;;;;;;4.70;4.40;;;3.70;99.90;;;;;;5073526;28;20090;-50
2022/11/21 02:11:53;;;;;;;5.43;4.00;;;3.70;99.90;;;;;;5073539;28;20012;-54
2022/11/21 02:14:19;;;;;;;4.50;4.10;;;3.60;99.90;;;;;;5073558;28;20028;-55
2022/11/21 02:16:45;;;;;;;4.05;3.75;;;3.60;99.90;;;;;;5073335;28;20021;-50
2022/11/21 02:19:20;;;;;;;4.63;4.30;;;3.60;99.90;;;;;;5072002;28;20479;-50
2022/11/21 02:21:57;;;;;;;4.25;3.80;;;3.50;99.90;;;;;;5073239;28;20047;-53
2022/11/21 02:24:32;;;;;;;4.90;4.50;;;3.50;99.90;;;;;;5073374;28;20337;-53
2022/11/21 02:26:59;;;;;;;4.93;4.53;;;3.50;99.90;;;;;;5073131;28;20033;-53
2022/11/21 02:29:26;;;;;;;4.30;4.00;;;3.50;99.90;;;;;;5073178;28;20032;-54
2022/11/21 02:31:52;;;;;;;4.25;3.85;;;3.50;99.90;;;;;;5073134;28;20024;-52
2022/11/21 02:34:18;;;;;;;5.38;4.70;;;3.40;99.90;;;;;;5073093;28;20032;-51
2022/11/21 02:36:45;;;;;;;4.45;4.05;;;3.40;99.90;;;;;;5072923;28;20059;-54
2022/11/21 02:39:18;;;;;;;7.28;4.07;;;3.50;99.90;;;;;;5071713;28;20056;-52
2022/11/21 02:42:13;;;;;;;4.20;3.90;;;3.40;99.90;;;;;;5072909;28;20047;-54
2022/11/21 02:45:22;;;;;;;3.28;3.03;;;3.50;99.90;;;;;;5064340;28;20362;-51
2022/11/21 02:47:52;;;;;;;3.47;3.28;;;3.50;99.90;;;;;;5061856;28;20075;-52
2022/11/21 02:50:32;;;;;;;3.70;3.50;;;3.50;99.90;;;;;;5072640;28;20060;-54
2022/11/21 02:52:58;;;;;;;3.22;3.00;;;3.50;99.90;;;;;;5072694;28;20028;-53
2022/11/21 02:55:25;;;;;;;3.95;3.15;;;3.50;99.90;;;;;;5072795;28;20024;-55
2022/11/21 02:57:51;;;;;;;4.07;3.67;;;3.60;99.90;;;;;;5072627;28;20678;-56
2022/11/21 03:00:18;;;;;;;3.67;3.38;;;3.50;99.90;;;;;;5072437;28;20047;-51
2022/11/21 03:02:49;;;;;;;3.58;3.30;;;3.50;99.90;;;;;;5072433;28;20025;-53
2022/11/21 03:05:17;;;;;;;30.38;11.93;;;3.60;99.90;;;;;;5072405;28;20032;-54
2022/11/21 03:07:43;;;;;;;12.20;7.35;;;3.60;99.90;;;;;;5072406;28;20021;-53
2022/11/21 03:10:10;;;;;;;4.45;4.05;;;3.70;99.90;;;;;;5072346;28;20371;-51
2022/11/21 03:12:40;;;;;;;6.15;3.95;;;3.70;99.90;;;;;;5072270;28;20427;-55
2022/11/21 03:15:07;;;;;;;4.80;4.40;;;3.80;99.90;;;;;;5072304;28;20108;-54
2022/11/21 03:17:33;;;;;;;4.45;3.75;;;3.80;99.90;;;;;;5071520;28;20059;-53
2022/11/21 03:19:59;;;;;;;3.60;3.33;;;3.70;99.90;;;;;;5071983;28;20519;-51
2022/11/21 03:22:25;;;;;;;4.25;2.88;;;3.80;99.90;;;;;;5072232;28;20437;-53
2022/11/21 03:24:50;;;;;;;5.50;4.97;;;3.80;99.90;;;;;;5071995;28;20090;-53
2022/11/21 03:27:16;;;;;;;2.97;2.78;;;3.80;99.90;;;;;;5072031;28;20425;-54
2022/11/21 03:29:41;;;;;;;7.68;7.03;;;3.90;99.90;;;;;;5071585;28;20104;-53
2022/11/21 03:32:07;;;;;;;5.38;2.47;;;3.90;99.90;;;;;;5071171;28;20024;-55
2022/11/21 03:34:33;;;;;;;2.90;2.70;;;4.00;99.90;;;;;;5070931;28;20448;-54
2022/11/21 03:36:58;;;;;;;10.52;8.07;;;4.00;99.90;;;;;;5070947;28;20116;-55
2022/11/21 03:39:24;;;;;;;3.20;3.00;;;4.00;99.90;;;;;;5070903;28;20044;-51
2022/11/21 03:41:50;;;;;;;3.08;2.78;;;4.10;99.90;;;;;;5070761;28;20044;-54
2022/11/21 03:44:16;;;;;;;3.60;3.30;;;4.20;99.90;;;;;;5070964;28;20020;-54
2022/11/21 03:46:44;;;;;;;2.53;2.33;;;4.20;99.90;;;;;;5070748;28;20024;-52
2022/11/21 03:49:11;;;;;;;3.50;2.97;;;4.20;99.90;;;;;;5070590;28;20032;-55
2022/11/21 03:51:38;;;;;;;3.05;2.85;;;4.20;99.90;;;;;;5070729;28;20111;-55
2022/11/21 03:54:04;;;;;;;4.85;2.75;;;4.20;99.90;;;;;;5069473;28;20430;-53
2022/11/21 03:56:29;;;;;;;3.28;2.90;;;4.10;99.90;;;;;;5070933;28;20024;-56
2022/11/21 03:58:55;;;;;;;2.90;2.70;;;4.10;99.90;;;;;;5071667;28;20411;-54
2022/11/21 04:01:22;;;;;;;2.65;2.45;;;4.10;99.90;;;;;;5071146;28;20064;-55
2022/11/21 04:03:48;;;;;;;27.88;14.60;;;4.10;99.90;;;;;;5070171;28;20024;-53
2022/11/21 04:06:17;;;;;;;12.00;6.53;;;4.20;99.90;;;;;;5070476;28;20082;-54
2022/11/21 04:08:42;;;;;;;22.25;11.45;;;4.10;99.90;;;;;;5070107;28;20055;-53
2022/11/21 04:11:09;;;;;;;5.97;4.40;;;4.20;99.90;;;;;;5069878;28;20016;-55
2022/11/21 04:13:34;;;;;;;11.15;6.82;;;4.20;99.90;;;;;;5069833;28;20027;-54
2022/11/21 04:16:00;;;;;;;3.42;3.13;;;4.20;99.90;;;;;;5070329;28;20017;-52
2022/11/21 04:18:26;;;;;;;7.53;4.75;;;4.30;99.90;;;;;;5069968;28;20487;-51
2022/11/21 04:20:59;;;;;;;6.93;5.50;;;4.30;99.90;;;;;;5070207;28;20025;-54
2022/11/21 04:23:25;;;;;;;5.25;4.57;;;4.30;99.90;;;;;;5069679;28;20033;-55
2022/11/21 04:25:51;;;;;;;38.25;19.65;;;4.30;99.90;;;;;;5071212;28;20025;-55
2022/11/21 04:28:16;;;;;;;31.95;16.35;;;4.40;99.90;;;;;;5074016;28;20023;-53
2022/11/21 04:30:42;;;;;;;10.60;6.68;;;4.40;99.90;;;;;;5075286;28;20032;-52
2022/11/21 04:33:08;;;;;;;4.82;3.45;;;4.40;99.90;;;;;;5075592;28;20099;-53
2022/11/21 04:35:34;;;;;;;3.10;2.90;;;4.40;99.90;;;;;;5075423;28;20112;-55
2022/11/21 04:38:00;;;;;;;5.07;3.28;;;4.40;99.90;;;;;;5075292;28;20103;-55
2022/11/21 04:40:25;;;;;;;4.13;3.78;;;4.40;99.90;;;;;;5075282;28;20032;-54
2022/11/21 04:42:51;;;;;;;3.25;2.92;;;4.40;99.90;;;;;;5075238;28;20604;-53
2022/11/21 04:45:16;;;;;;;3.83;3.38;;;4.50;99.90;;;;;;5073818;28;20028;-53
2022/11/21 04:47:44;;;;;;;2.13;2.03;;;4.50;99.90;;;;;;5075003;28;20024;-54
2022/11/21 04:50:12;;;;;;;3.20;2.90;;;4.50;99.90;;;;;;5075052;28;20029;-53
2022/11/21 04:52:38;;;;;;;3.08;2.88;;;4.40;99.90;;;;;;5074943;28;20412;-55
2022/11/21 04:55:05;;;;;;;2.80;2.30;;;4.40;99.90;;;;;;5074949;28;20028;-55
2022/11/21 04:57:31;;;;;;;9.55;3.55;;;4.40;99.90;;;;;;5075051;28;20017;-52
2022/11/21 04:59:57;;;;;;;3.88;2.75;;;4.40;99.90;;;;;;5074734;28;20033;-53
2022/11/21 05:02:23;;;;;;;2.50;2.33;;;4.40;99.90;;;;;;5074791;28;20032;-55
2022/11/21 05:04:49;;;;;;;3.53;3.17;;;4.30;99.90;;;;;;5073465;28;20032;-55
2022/11/21 05:07:16;;;;;;;2.28;2.17;;;4.30;99.90;;;;;;5074654;28;20483;-54
2022/11/21 05:09:41;;;;;;;2.72;2.53;;;4.20;99.90;;;;;;5074442;28;20028;-54
2022/11/21 05:15:11;;;;;;;;;;;4.10;99.90;;;;;;5052334;28;20029;-53
2022/11/21 05:17:37;;;;;;;4.95;2.75;;;4.10;99.90;;;;;;5069632;28;19905;-52
2022/11/21 05:20:03;;;;;;;2.40;2.20;;;4.10;99.90;;;;;;5074234;28;20484;-52
2022/11/21 05:22:28;;;;;;;2.75;2.55;;;4.10;99.90;;;;;;5073416;28;20696;-55
2022/11/21 05:24:54;;;;;;;3.10;2.53;;;4.10;99.90;;;;;;5074270;28;20151;-55
2022/11/21 05:27:20;;;;;;;2.78;2.58;;;4.10;99.90;;;;;;5074466;28;20119;-55
2022/11/21 05:29:45;;;;;;;2.92;2.67;;;4.10;99.90;;;;;;5074051;28;20028;-52
2022/11/21 05:32:11;;;;;;;2.65;2.42;;;4.00;99.90;;;;;;5074339;28;20024;-54
2022/11/21 05:34:37;;;;;;;3.53;2.63;;;4.00;99.90;;;;;;5074070;28;20017;-52
2022/11/21 05:37:02;;;;;;;3.28;2.80;;;3.90;99.90;;;;;;5074074;28;20024;-51
2022/11/21 05:39:28;;;;;;;7.15;2.72;;;3.90;99.90;;;;;;5073095;28;20052;-54
2022/11/21 05:41:54;;;;;;;4.72;2.83;;;4.00;99.90;;;;;;5074146;28;20035;-54
2022/11/21 05:44:20;;;;;;;3.70;2.90;;;3.90;99.90;;;;;;5073933;28;20090;-54
2022/11/21 05:46:46;;;;;;;3.25;2.95;;;3.80;99.90;;;;;;5073861;28;20487;-50
2022/11/21 05:49:12;;;;;;;2.72;2.53;;;3.70;99.90;;;;;;5073771;28;20028;-52
2022/11/21 05:51:37;;;;;;;7.18;3.03;;;3.60;99.90;;;;;;5073839;28;20134;-51
2022/11/21 05:54:04;;;;;;;9.27;5.93;;;3.60;99.90;;;;;;5073458;28;20060;-51
2022/11/21 05:56:30;;;;;;;3.38;3.17;;;3.50;99.90;;;;;;5073151;28;20095;-50
2022/11/21 05:58:57;;;;;;;5.18;2.78;;;3.50;99.90;;;;;;5072322;28;20111;-51
2022/11/21 06:04:08;;;;;;;7.95;5.70;;;3.50;99.90;;;;;;5072651;28;20113;-50
2022/11/21 06:06:35;;;;;;;3.40;2.92;;;3.50;99.90;;;;;;5070799;28;20035;-50
2022/11/21 06:09:01;;;;;;;3.67;3.13;;;3.60;99.90;;;;;;5072369;28;20020;-50
2022/11/21 06:11:27;;;;;;;10.55;7.25;;;3.60;99.90;;;;;;5072196;28;20647;-53
2022/11/21 06:13:53;;;;;;;7.82;6.20;;;3.60;99.90;;;;;;5072081;28;20093;-54
2022/11/21 06:16:19;;;;;;;8.55;5.80;;;3.70;99.90;;;;;;5070659;28;20025;-51
2022/11/21 06:18:47;;;;;;;4.15;3.33;;;3.70;99.90;;;;;;5071918;28;20043;-53
2022/11/21 06:21:18;;;;;;;6.05;4.57;;;3.70;99.90;;;;;;5072071;28;20023;-50
2022/11/21 06:23:50;;;;;;;7.18;5.57;;;3.70;99.90;;;;;;5071961;28;20048;-50
2022/11/21 06:26:18;;;;;;;21.67;10.75;;;3.60;99.90;;;;;;5071901;28;20495;-51
2022/11/21 06:28:45;;;;;;;5.82;4.15;;;3.60;99.90;;;;;;5071736;28;20047;-50
2022/11/21 06:31:15;;;;;;;35.20;17.38;;;3.60;99.90;;;;;;5072031;28;20048;-50
2022/11/21 06:33:42;;;;;;;4.18;3.55;;;3.60;99.90;;;;;;5070393;28;20029;-52
2022/11/21 06:36:10;;;;;;;30.75;15.27;;;3.60;99.90;;;;;;5071681;28;20060;-51
2022/11/21 06:38:36;;;;;;;58.38;27.58;;;3.60;99.90;;;;;;5070334;28;20024;-51
2022/11/21 06:41:09;;;;;;;44.42;18.77;;;3.70;99.90;;;;;;5071572;28;20534;-52
2022/11/21 06:43:34;;;;;;;4.60;2.97;;;3.70;99.90;;;;;;5071532;28;20024;-50
2022/11/21 06:46:02;;;;;;;138.85;52.10;;;3.80;99.90;;;;;;5071607;28;20032;-51
2022/11/21 06:48:32;;;;;;;14.02;7.35;;;3.80;99.90;;;;;;5071413;28;20087;-50
2022/11/21 06:51:05;;;;;;;208.25;70.57;;;3.90;99.90;;;;;;5070319;28;20487;-52
2022/11/21 06:53:31;;;;;;;9.40;5.32;;;3.90;99.90;;;;;;5071406;28;20103;-50
2022/11/21 06:55:58;;;;;;;67.90;23.60;;;4.00;99.90;;;;;;5071327;28;20119;-50
2022/11/21 06:58:24;;;;;;;132.90;48.17;;;4.10;99.90;;;;;;5071189;28;20511;-50
2022/11/21 07:00:50;;;;;;;169.63;58.70;;;4.20;99.90;;;;;;5071243;28;20025;-51
2022/11/21 07:03:16;;;;;;;34.80;11.63;;;4.20;99.90;;;;;;5071224;28;20028;-50
2022/11/21 07:05:41;;;;;;;4.18;3.78;;;4.20;99.90;;;;;;5071213;28;20070;-51
2022/11/21 07:08:07;;;;;;;4.47;2.88;;;4.30;99.90;;;;;;5070886;28;20387;-51
2022/11/21 07:10:33;;;;;;;3.22;2.95;;;4.40;99.90;;;;;;5071075;28;20043;-51
2022/11/21 07:15:44;;;;;;;5.80;4.28;;;4.60;99.90;;;;;;5071299;28;20023;-50
2022/11/21 07:18:11;;;;;;;20.65;9.98;;;4.80;99.90;;;;;;5070977;28;20448;-52
2022/11/21 07:20:37;;;;;;;17.45;8.88;;;4.90;99.90;;;;;;5070501;28;20415;-52
2022/11/21 07:23:03;;;;;;;4.82;2.65;;;5.10;99.90;;;;;;5069529;28;20464;-50
2022/11/21 07:25:28;;;;;;;8.45;5.85;;;5.30;99.90;;;;;;5070813;28;20101;-51
2022/11/21 07:27:57;;;;;;;6.05;5.00;;;5.40;99.90;;;;;;5070699;28;20576;-52
2022/11/21 07:30:23;;;;;;;4.97;3.10;;;5.40;99.90;;;;;;5069297;28;20116;-50
2022/11/21 07:32:55;;;;;;;3.30;2.88;;;5.50;99.90;;;;;;5070753;28;20103;-50
2022/11/21 07:35:20;;;;;;;4.63;3.40;;;5.50;99.90;;;;;;5070516;28;20047;-51
2022/11/21 07:37:46;;;;;;;38.42;15.68;;;5.20;99.90;;;;;;5069219;28;20110;-53
2022/11/21 07:40:12;;;;;;;10.57;5.38;;;5.10;99.90;;;;;;5070669;28;20024;-51
2022/11/21 07:42:38;;;;;;;4.93;3.78;;;5.00;99.90;;;;;;5070287;28;20523;-52
2022/11/21 07:45:04;;;;;;;13.38;7.05;;;4.90;99.90;;;;;;5070612;28;20111;-52
2022/11/21 07:47:29;;;;;;;13.77;7.65;;;4.70;99.90;;;;;;5070512;28;20013;-51
2022/11/21 07:49:55;;;;;;;17.52;9.75;;;4.60;99.90;;;;;;5070345;28;20475;-51
2022/11/21 07:52:21;;;;;;;31.98;12.82;;;4.50;99.90;;;;;;5070205;28;20020;-50
2022/11/21 07:54:46;;;;;;;13.18;7.22;;;4.40;99.90;;;;;;5070195;28;20021;-50
2022/11/21 07:57:12;;;;;;;9.73;5.10;;;4.40;99.90;;;;;;5070355;28;20052;-51
2022/11/21 07:59:37;;;;;;;18.50;9.90;;;4.50;99.90;;;;;;5070408;28;20052;-53
2022/11/21 08:02:03;;;;;;;11.77;7.28;;;4.50;99.90;;;;;;5069988;28;20016;-51
2022/11/21 08:04:29;;;;;;;37.00;20.77;;;4.50;99.90;;;;;;5070302;28;20457;-51
2022/11/21 08:06:55;;;;;;;22.10;12.80;;;4.50;99.90;;;;;;5070221;28;20628;-51
2022/11/21 08:09:20;;;;;;;3.22;2.97;;;4.60;99.90;;;;;;5070134;28;20546;-52
2022/11/21 08:11:46;;;;;;;8.63;5.40;;;4.70;99.90;;;;;;5070288;28;20480;-50
2022/11/21 08:14:12;;;;;;;5.70;4.50;;;4.80;99.90;;;;;;5070229;28;20056;-51
2022/11/21 08:16:37;;;;;;;2.47;2.28;;;4.90;99.90;;;;;;5070232;28;20046;-52
2022/11/21 08:19:04;;;;;;;5.80;2.70;;;5.10;99.90;;;;;;5069872;28;20041;-50
2022/11/21 08:21:30;;;;;;;2.67;2.47;;;5.30;99.90;;;;;;5070102;28;20027;-52
2022/11/21 08:23:55;;;;;;;3.83;2.40;;;5.40;99.90;;;;;;5070044;28;20475;-50
2022/11/21 08:26:21;;;;;;;3.40;2.30;;;5.50;99.90;;;;;;5069995;28;20025;-51
2022/11/21 08:28:47;;;;;;;4.88;4.00;;;5.40;99.90;;;;;;5070039;28;20028;-52
2022/11/21 08:31:13;;;;;;;2.83;2.63;;;5.30;99.90;;;;;;5070136;28;20021;-50
2022/11/21 08:33:57;;;;;;;6.38;3.92;;;5.40;99.90;;;;;;5068433;28;20033;-51
2022/11/21 08:36:23;;;;;;;4.57;2.90;;;5.40;99.90;;;;;;5070138;28;20024;-52
2022/11/21 08:38:49;;;;;;;3.38;2.70;;;5.40;99.90;;;;;;5069704;28;20111;-52
2022/11/21 08:43:59;;;;;;;3.53;2.53;;;5.50;99.90;;;;;;5069806;28;20028;-54
2022/11/21 08:46:27;;;;;;;4.20;2.67;;;5.40;99.90;;;;;;5069837;28;20024;-52
2022/11/21 08:48:55;;;;;;;6.40;3.03;;;5.30;99.90;;;;;;5069780;28;20017;-52
2022/11/21 08:51:21;;;;;;;3.20;2.30;;;5.50;99.90;;;;;;5069930;28;20124;-52
2022/11/21 08:53:47;;;;;;;3.60;2.70;;;5.70;99.90;;;;;;5069697;28;20494;-49
2022/11/21 08:56:13;;;;;;;3.03;2.72;;;5.60;99.90;;;;;;5069821;28;20056;-51
2022/11/21 08:58:48;;;;;;;2.70;2.50;;;5.80;99.90;;;;;;5068375;28;20021;-50
2022/11/21 09:01:13;;;;;;;3.03;2.63;;;5.70;99.90;;;;;;5069833;28;20028;-50
2022/11/21 09:03:39;;;;;;;3.17;2.50;;;5.60;99.90;;;;;;5068374;28;20384;-50
2022/11/21 09:06:05;;;;;;;3.35;2.75;;;5.70;99.90;;;;;;5069805;28;20031;-50
2022/11/21 09:08:32;;;;;;;4.35;2.90;;;5.50;99.90;;;;;;5069732;28;20515;-54
2022/11/21 09:10:58;;;;;;;5.40;2.90;;;5.50;99.90;;;;;;5069535;28;20052;-51
2022/11/21 09:13:23;;;;;;;2.53;2.33;;;5.50;99.90;;;;;;5069495;28;20017;-51
2022/11/21 09:18:33;;;;;;;3.55;2.85;;;5.50;99.90;;;;;;5073386;28;20069;-51
2022/11/21 09:20:59;;;;;;;5.15;3.30;;;5.50;99.90;;;;;;5073057;28;20032;-51
2022/11/21 09:23:25;;;;;;;3.80;3.50;;;5.60;99.90;;;;;;5071981;28;20056;-51
2022/11/21 09:25:51;;;;;;;3.00;2.72;;;5.60;99.90;;;;;;5073126;28;20039;-50
2022/11/21 09:28:16;;;;;;;6.13;4.93;;;5.50;99.90;;;;;;5073061;28;20021;-51
2022/11/21 09:30:42;;;;;;;4.00;2.67;;;5.60;99.90;;;;;;5073185;28;20028;-50
2022/11/21 09:33:12;;;;;;;2.70;2.50;;;5.50;99.90;;;;;;5073105;28;20032;-52
2022/11/21 09:35:38;;;;;;;2.90;2.28;;;5.70;99.90;;;;;;5072987;28;20032;-52
2022/11/21 09:38:05;;;;;;;7.25;3.20;;;5.60;99.90;;;;;;5072725;28;20021;-50
2022/11/21 09:40:32;;;;;;;3.28;2.53;;;5.50;99.90;;;;;;5072954;28;20461;-51
2022/11/21 09:43:16;;;;;;;2.78;2.55;;;5.60;99.90;;;;;;5072737;28;20020;-52
2022/11/21 09:45:44;;;;;;;4.28;2.13;;;5.50;99.90;;;;;;5072754;28;20035;-51
2022/11/21 09:48:14;;;;;;;2.53;2.33;;;5.70;99.90;;;;;;5072785;28;20029;-52
2022/11/21 09:50:58;;;;;;;2.63;2.42;;;5.70;99.90;;;;;;5072582;28;20028;-51
2022/11/21 09:53:37;;;;;;;3.15;2.33;;;6.10;99.90;;;;;;5072260;28;20495;-49
2022/11/21 09:56:18;;;;;;;3.75;2.78;;;6.20;99.90;;;;;;5072840;28;20021;-50
2022/11/21 09:58:50;;;;;;;2.47;2.28;;;6.20;99.90;;;;;;5072805;28;20044;-52
2022/11/21 10:01:16;;;;;;;2.78;2.58;;;6.00;99.90;;;;;;5072410;28;20025;-52
2022/11/21 10:03:48;;;;;;;5.35;3.63;;;6.10;99.90;;;;;;5072453;28;20035;-50
2022/11/21 10:06:13;;;;;;;2.42;2.25;;;6.20;99.90;;;;;;5072078;28;20020;-51
2022/11/21 10:09:08;;;;;;;4.03;2.50;;;6.00;99.90;;;;;;5072230;28;20024;-51
2022/11/21 10:15:05;;;;;;;3.53;2.35;;;6.10;99.90;;;;;;5072171;28;20035;-53
2022/11/21 10:17:46;;;;;;;2.78;2.50;;;6.20;99.90;;;;;;5066244;28;20477;-52
2022/11/21 10:20:46;;;;;;;2.70;2.50;;;6.00;99.90;;;;;;5071828;28;20149;-51
2022/11/21 10:23:26;;;;;;;2.50;2.30;;;6.00;99.90;;;;;;5048253;28;20036;-50
2022/11/21 10:26:04;;;;;;;3.08;2.53;;;6.00;99.90;;;;;;5071747;28;20028;-52
2022/11/21 10:29:05;;;;;;;5.20;2.17;;;6.00;99.90;;;;;;5072014;28;20051;-52
2022/11/21 10:31:37;;;;;;;2.88;2.25;;;5.90;99.90;;;;;;5071514;28;20043;-50
2022/11/21 10:34:21;;;;;;;2.50;2.30;;;5.80;99.90;;;;;;5072343;28;20476;-52
2022/11/21 10:36:55;;;;;;;2.00;1.90;;;5.90;99.90;;;;;;5071806;28;20033;-52
2022/11/21 10:39:31;;;;;;;3.08;2.42;;;5.90;99.90;;;;;;5071743;28;20028;-51
2022/11/21 10:42:09;;;;;;;3.67;2.30;;;5.90;99.90;;;;;;5071764;28;20017;-51
2022/11/21 10:47:27;;;;;;;2.08;1.90;;;5.80;99.90;;;;;;5071603;28;20054;-50
2022/11/21 10:50:05;;;;;;;3.58;2.00;;;5.80;99.90;;;;;;5071475;28;20017;-52
2022/11/21 10:52:34;;;;;;;2.05;1.95;;;5.80;99.90;;;;;;5072021;28;20013;-51
2022/11/21 10:55:03;;;;;;;1.85;1.70;;;5.90;99.90;;;;;;5071518;28;20021;-52
2022/11/21 10:57:40;;;;;;;2.75;2.00;;;5.90;99.90;;;;;;5071420;28;20016;-51
2022/11/21 11:00:11;;;;;;;2.28;2.05;;;6.00;99.90;;;;;;5071269;28;20112;-55
2022/11/21 11:02:57;;;;;;;2.90;2.40;;;5.90;99.90;;;;;;5069935;28;20533;-52
2022/11/21 11:05:24;;;;;;;5.05;2.58;;;6.00;99.90;;;;;;5071164;28;20053;-50
2022/11/21 11:08:05;;;;;;;4.75;2.15;;;6.10;99.90;;;;;;5071085;28;20033;-50
2022/11/21 11:10:34;;;;;;;5.13;3.25;;;6.30;99.90;;;;;;5071120;28;20090;-52
2022/11/21 11:16:00;;;;;;;2.65;2.03;;;6.30;99.90;;;;;;5071099;28;20586;-51
2022/11/21 11:18:26;;;;;;;5.45;2.40;;;6.30;99.90;;;;;;5070852;28;20027;-50
2022/11/21 11:20:52;;;;;;;3.00;2.63;;;6.40;99.90;;;;;;5069709;28;20174;-52
2022/11/21 11:23:23;;;;;;;2.08;1.98;;;6.40;99.90;;;;;;5070809;28;20081;-52
2022/11/21 11:25:52;;;;;;;2.30;2.08;;;6.60;99.90;;;;;;5070819;28;20053;-51
2022/11/21 11:28:18;;;;;;;7.25;3.42;;;6.60;99.90;;;;;;5069481;28;20433;-51
2022/11/21 11:30:45;;;;;;;5.88;3.97;;;6.60;99.90;;;;;;5070574;28;20056;-50
2022/11/21 11:33:30;;;;;;;10.38;6.70;;;6.50;99.90;;;;;;5070715;28;20116;-51
2022/11/21 11:36:10;;;;;;;3.70;2.95;;;6.40;99.90;;;;;;5070554;28;20082;-54
2022/11/21 11:38:36;;;;;;;1.98;1.88;;;6.60;99.90;;;;;;5070000;28;20376;-50
2022/11/21 11:41:23;;;;;;;2.80;2.13;;;6.70;99.90;;;;;;5069241;28;20024;-52
2022/11/21 11:47:31;;;;;;;3.88;3.20;;;6.70;99.90;;;;;;5069737;28;20098;-51
2022/11/21 11:50:09;;;;;;;7.35;3.83;;;6.70;99.90;;;;;;5070331;28;20020;-52
2022/11/21 11:52:56;;;;;;;5.18;3.22;;;6.60;99.90;;;;;;5070438;28;20111;-51
2022/11/21 11:55:40;;;;;;;5.30;3.80;;;6.50;99.90;;;;;;5070559;28;20388;-52
2022/11/21 11:58:10;;;;;;;;;;;6.40;99.90;;;;;;5070896;28;20024;-50
2022/11/21 12:00:49;;;;;;;2.70;2.50;;;6.50;99.90;;;;;;5070280;28;19999;-51
2022/11/21 12:03:44;;;;;;;3.55;2.50;;;6.40;99.90;;;;;;5070535;28;20379;-52
2022/11/21 12:06:24;;;;;;;2.95;2.58;;;6.40;99.90;;;;;;5070116;28;20096;-50
2022/11/21 12:08:58;;;;;;;4.95;3.63;;;6.40;99.90;;;;;;5068828;28;20119;-51
2022/11/21 12:17:42;;;;;;;4.50;2.50;;;6.40;99.90;;;;;;5070141;28;20093;-51
2022/11/21 12:20:29;;;;;;;7.80;4.35;;;6.50;99.90;;;;;;5069963;28;20079;-52
2022/11/21 12:22:55;;;;;;;3.17;1.90;;;6.50;99.90;;;;;;5070068;28;20251;-50
2022/11/21 12:25:27;;;;;;;5.85;4.20;;;6.70;99.90;;;;;;5070191;28;20016;-50
2022/11/21 12:27:55;;;;;;;5.50;3.92;;;6.60;99.90;;;;;;5068766;28;20098;-51
2022/11/21 12:30:42;;;;;;;3.22;2.92;;;6.70;99.90;;;;;;5068777;28;20483;-52
2022/11/21 12:33:18;;;;;;;10.27;5.20;;;7.00;99.90;;;;;;5068672;28;20035;-52
2022/11/21 12:35:52;;;;;;;14.30;7.72;;;8.80;99.90;;;;;;5070194;28;20025;-51
2022/11/21 12:39:09;;;;;;;14.63;5.28;;;10.90;97.80;;;;;;5069970;28;20339;-53
2022/11/21 12:44:45;;;;;;;10.13;5.00;;;15.10;83.00;;;;;;5069240;28;20423;-53
2022/11/21 12:47:11;;;;;;;21.75;11.65;;;16.80;77.00;;;;;;5070486;28;20070;-55
2022/11/21 12:55:41;;;;;;;2.05;1.85;;;14.60;75.00;;;;;;5074104;28;20085;-56
2022/11/21 12:58:25;;;;;;;9.20;5.65;;;16.20;71.90;;;;;;5073604;28;20032;-52
2022/11/21 13:01:14;;;;;;;2.35;1.10;;;17.10;66.60;;;;;;5073557;28;20024;-52
2022/11/21 13:03:58;;;;;;;3.90;1.73;;;15.50;69.90;;;;;;5073730;28;20441;-51
2022/11/21 13:06:32;;;;;;;;;;;13.40;74.20;;;;;;5074068;28;20391;-52
2022/11/21 13:09:01;;;;;;;18.13;3.80;;;12.00;79.50;;;;;;5073270;28;19954;-53
2022/11/21 13:11:57;;;;;;;2.10;1.70;;;11.40;82.60;;;;;;5072057;28;20032;-54
2022/11/21 13:14:54;;;;;;;6.45;4.38;;;10.80;85.30;;;;;;5073267;28;20070;-51
2022/11/21 13:17:45;;;;;;;8.35;6.15;;;10.40;88.30;;;;;;5073245;28;20082;-52
2022/11/21 13:20:14;;;;;;;14.07;5.40;;;10.90;89.50;;;;;;5073135;28;20097;-52
2022/11/21 13:22:46;;;;;;;453.42;188.13;;;12.00;86.50;;;;;;5073189;28;20056;-52
2022/11/21 13:25:31;;;;;;;424.65;182.90;;;13.40;81.60;;;;;;5073052;28;20024;-53
2022/11/21 13:28:18;;;;;;;789.40;405.95;;;14.00;76.70;;;;;;5073060;28;20016;-53
2022/11/21 13:30:51;;;;;;;169.25;80.60;;;15.10;75.70;;;;;;5072933;28;20017;-52
2022/11/21 13:33:35;;;;;;;338.27;193.30;;;16.20;70.80;;;;;;5073034;28;20028;-53
2022/11/21 13:36:05;;;;;;;455.02;302.58;;;16.70;68.30;;;;;;5073014;28;20021;-51
2022/11/21 13:38:49;;;;;;;6.03;3.45;;;16.40;65.90;;;;;;5072960;28;20489;-53
2022/11/21 13:44:32;;;;;;;;;;;16.60;65.80;;;;;;5073067;28;20105;-51
2022/11/21 13:47:08;;;;;;;6.65;1.83;;;16.30;66.50;;;;;;5071474;28;20366;-53
2022/11/21 13:49:42;;;;;;;15.15;3.08;;;18.10;64.20;;;;;;5072675;28;20085;-52
2022/11/21 13:52:54;;;;;;;1.75;1.20;;;18.70;61.40;;;;;;5072678;28;20090;-50
2022/11/21 13:55:49;;;;;;;1.42;1.00;;;18.10;58.20;;;;;;5072729;28;20028;-53